Amunt
Inicio > meteoXarxa
Fes-te'n soci

METEOXARXA

Castelló de la Plana
Ubicació Port
Comarca la Plana Alta
Altitud (msnm) 13
Posició geogràfica 39° 57' 44.00" N, 00° 1' 49.00" E
Model Davis Vantage Pro
Presa de dades
Font de les dades Universitat Jaume I de Castelló
Estadístiques. Resum
Data Temperatura (ºC) Humitat (%) Pressió (hPa) Vent (km/h) Precipit. (mm)
Mínima Mitjana Màxima Mínima Mitjana Màxima Mínima Mitjana Màxima Predom. Mitjana Ràfega màxima Total Dies de pluja
Mínima Mitjana Màxima Mínima Mitjana Màxima
Últimes dades diàries
23-02-2017 11,6     13,1     14,8 WNW 6,0 29,0  
22-02-2017 9,3     12,8     16,8 WNW 4,5 22,5  
21-02-2017 8,1     11,9     14,8 WNW 8,2 25,7  
20-02-2017 8,3     11,7     15,6 ESE 5,3 17,7  
19-02-2017 10,3     13,0     14,4 ENE 8,4 35,4  
18-02-2017 8,2     11,8     13,9 S 3,1 20,9  
17-02-2017 9,3     12,0     14,1 NE 3,7 24,1  
16-02-2017 10,7     12,9     14,7 NE 1,3 11,3  
15-02-2017 9,1     12,1     14,4 NE 2,9 19,3  
14-02-2017 9,2     12,0     14,5 NNE 1,0 17,7  
13-02-2017 11,1     13,6     14,3 WSW 17,7  
12-02-2017 13,1     13,8     14,8  
11-02-2017 11,4     12,5     13,3 NNE 10,1 48,3  
10-02-2017 7,0     11,2     13,3 ESE 8,4 24,1  
09-02-2017 8,9     11,6     13,2 S 17,5 64,4 0,0  
08-02-2017 11,7     13,1     14,9 NW 39,8 85,3 0,0  
07-02-2017 13,6     16,5     19,8 WNW 9,0 41,8 0,0  
06-02-2017 12,1     15,8     19,8 NW 15,3 69,2 0,0  
05-02-2017 10,8     15,4     18,6 WNW 43,0 95,0  
04-02-2017 15,5     16,7     20,3 SW 34,8 61,2 0,0  
03-02-2017 10,2     15,7     20,0 SW 26,4 64,4  
02-02-2017 10,2     12,7     14,8 SSW 15,9 56,3 0,0  
01-02-2017 9,6     11,2     13,0 W 0,5 14,5 0,0  
31-01-2017 9,2     11,5     13,1 W 0,2 9,7 0,0  
30-01-2017 9,3     12,0     14,4 W 2,6 14,5 0,0  
29-01-2017 7,2     10,8     13,7 W 6,4 22,5  
28-01-2017 8,7     12,7     16,4 SSE 6,0 38,6 434,8  
27-01-2017 9,3     11,6     13,7 SSE 3,1 49,9  
26-01-2017 7,1     10,1     11,5 NE 2,3 20,9  
25-01-2017 6,4     10,2     13,1 NE 10,3 29,0  
24-01-2017 9,6     11,8     14,9 WNW 11,6 29,0  
23-01-2017 10,6     12,0     13,7 NNW 12,4 43,5  
Dades del mes en curs (actualitzades fins l'últim dia disponible)
02/2017 7,0 10,4 15,5 13,2 13,0 15,6 20,3   12,6 95,0 0,0  
Últimes dades mensuals
12/2016 6,7 10,7 16,1 13,3 12,8 15,9 17,9 6,8 70,8 84,2 6
11/2016 8,2 13,0 18,3 16,0 14,6 18,5 24,5 13,5 64,4 73,4 11
10/2016 14,9 18,6 21,7 21,0 19,7 22,7 25,1 8,8 48,3 13,2 9
09/2016 17,6 21,4 26,2 24,1 23,6 26,1 30,2 9,7 77,2 12,8 4
08/2016 20,9 23,4 25,8 25,7 25,2 27,1 28,2 10,0 41,8 5,2 6
07/2016 20,7 23,6 25,6 25,5 24,2 26,8 28,7 9,6 46,7 0,0 0
06/2016 16,2 20,4 23,6 22,5 21,2 24,4 31,4 10,5 66,0 1,2 2
05/2016 10,8 16,0 19,0 18,1 16,7 19,9 27,4 12,0 82,1 19,0 10
04/2016 9,2 13,5 16,2 15,7 15,3 17,9 24,6 13,0 64,4 9,4 9
03/2016 7,3 10,7 13,4 13,5 12,6 16,0 21,8 14,0 78,9 23,6 8
02/2016 5,4 10,3 16,7 13,5 11,6 16,5 24,8 15,5 78,9 2,6 3
01/2016 6,7 10,6 15,4 13,7 11,9 16,8 21,9 14,1 74,0 0,2 1
12/2015 8,9 11,1 14,3 14,1 15,8 16,6 18,6 5,5 30,6 0,4 2
Dades de l'any en curs (actualitzades fins l'últim dia disponible)
2017 4,0 9,2 15,5 12,2 9,8 14,8 20,3   10,6 95,0 458,8  
Últimes dades anuals
2016 5,4 16,0 26,2 18,6 11,6 20,7 31,4 11,5 82,1 244,8 69